首页
METAR-TAF:

METAR-TAF

机场 :

Plantation Airpark

Sylvania, 喬治亞, 美国

纬度: 32-38-43N, 经度: 081-35-47W, 海拔: 57米

当前天气观测

该预报发布于25分钟前的09:15 UTC
风速8节,风向东北
温度 14°C
湿度 47%
气压 1026 hPa
能見度: 16.1公里
阴天层高于8000英尺

METAR: KJYL 190915Z AUTO 05008KT 10SM OVC080 14/03 A3031 RMK AO2 T01430033

时间: 04:40 (09:40 UTC)


TAF: 丢失

超过4000个机场的气象观测和天气预报(METAR&TAF报告)。

可查询的气象台以黄色和红色小点在地图上表示。

将鼠标移到小点上方,可查看气象台名称。

然后点击查看天气观测和预报。

如需切换地图:点击带黑十字的绿色按钮放大地图;点击带横线的绿色按钮缩小地图;或者点击绿色箭头查看邻近地区的地图。


METAR-TAF: